sensor_id;sensor_type;location;lat;lon;timestamp;pressure;altitude;pressure_sealevel;temperature;humidity
8653;BME280;4364;52.426;9.424;2023-02-11T00:00:15;102623.56;;;4.74;91.04
8653;BME280;4364;52.426;9.424;2023-02-11T00:02:42;102624.78;;;4.71;91.40
8653;BME280;4364;52.426;9.424;2023-02-11T00:05:13;102628.69;;;4.69;91.33
8653;BME280;4364;52.426;9.424;2023-02-11T00:07:39;102621.59;;;4.68;91.72
8653;BME280;4364;52.426;9.424;2023-02-11T00:10:06;102632.53;;;4.59;92.00
8653;BME280;4364;52.426;9.424;2023-02-11T00:12:34;102653.13;;;4.67;92.33
8653;BME280;4364;52.426;9.424;2023-02-11T00:15:02;102647.09;;;4.65;92.00
8653;BME280;4364;52.426;9.424;2023-02-11T00:17:29;102640.47;;;4.68;92.02
8653;BME280;4364;52.426;9.424;2023-02-11T00:19:55;102637.22;;;4.72;92.51
8653;BME280;4364;52.426;9.424;2023-02-11T00:22:22;102639.75;;;4.59;93.59
8653;BME280;4364;52.426;9.424;2023-02-11T00:24:48;102646.28;;;4.64;93.71
8653;BME280;4364;52.426;9.424;2023-02-11T00:27:15;102637.69;;;4.61;94.12
8653;BME280;4364;52.426;9.424;2023-02-11T00:29:43;102636.50;;;4.63;93.97
8653;BME280;4364;52.426;9.424;2023-02-11T00:32:10;102623.47;;;4.67;94.37
8653;BME280;4364;52.426;9.424;2023-02-11T00:34:37;102615.59;;;4.66;94.75
8653;BME280;4364;52.426;9.424;2023-02-11T00:37:04;102626.56;;;4.64;95.59
8653;BME280;4364;52.426;9.424;2023-02-11T00:39:32;102637.06;;;4.59;96.02
8653;BME280;4364;52.426;9.424;2023-02-11T00:41:58;102643.50;;;4.58;96.57
8653;BME280;4364;52.426;9.424;2023-02-11T00:44:26;102647.03;;;4.58;96.96
8653;BME280;4364;52.426;9.424;2023-02-11T00:46:52;102645.16;;;4.59;97.48
8653;BME280;4364;52.426;9.424;2023-02-11T00:49:19;102647.66;;;4.60;97.64
8653;BME280;4364;52.426;9.424;2023-02-11T00:51:47;102650.28;;;4.54;97.83
8653;BME280;4364;52.426;9.424;2023-02-11T00:54:13;102664.00;;;4.59;98.59
8653;BME280;4364;52.426;9.424;2023-02-11T00:56:40;102661.97;;;4.61;99.08
8653;BME280;4364;52.426;9.424;2023-02-11T00:59:06;102662.34;;;4.58;99.22
8653;BME280;4364;52.426;9.424;2023-02-11T01:01:33;102664.28;;;4.64;100.00
8653;BME280;4364;52.426;9.424;2023-02-11T01:04:00;102658.34;;;4.54;100.00
8653;BME280;4364;52.426;9.424;2023-02-11T01:06:27;102652.50;;;4.50;100.00
8653;BME280;4364;52.426;9.424;2023-02-11T01:08:53;102661.50;;;4.57;100.00
8653;BME280;4364;52.426;9.424;2023-02-11T01:11:20;102654.00;;;4.53;100.00
8653;BME280;4364;52.426;9.424;2023-02-11T01:13:47;102654.19;;;4.51;100.00
8653;BME280;4364;52.426;9.424;2023-02-11T01:16:14;102650.91;;;4.56;100.00
8653;BME280;4364;52.426;9.424;2023-02-11T01:18:42;102653.59;;;4.56;100.00
8653;BME280;4364;52.426;9.424;2023-02-11T01:21:10;102644.06;;;4.53;100.00
8653;BME280;4364;52.426;9.424;2023-02-11T01:23:37;102631.88;;;4.42;100.00
8653;BME280;4364;52.426;9.424;2023-02-11T01:26:04;102640.66;;;4.44;100.00
8653;BME280;4364;52.426;9.424;2023-02-11T01:28:30;102635.63;;;4.41;100.00
8653;BME280;4364;52.426;9.424;2023-02-11T01:30:59;102629.59;;;4.39;100.00
8653;BME280;4364;52.426;9.424;2023-02-11T01:33:27;102625.69;;;4.42;100.00
8653;BME280;4364;52.426;9.424;2023-02-11T01:35:53;102620.47;;;4.40;100.00
8653;BME280;4364;52.426;9.424;2023-02-11T01:38:24;102610.94;;;4.38;100.00
8653;BME280;4364;52.426;9.424;2023-02-11T01:41:00;102607.66;;;4.42;100.00
8653;BME280;4364;52.426;9.424;2023-02-11T01:43:35;102599.38;;;4.44;100.00
8653;BME280;4364;52.426;9.424;2023-02-11T01:46:11;102587.22;;;4.48;100.00
8653;BME280;4364;52.426;9.424;2023-02-11T01:48:43;102583.41;;;4.42;100.00
8653;BME280;4364;52.426;9.424;2023-02-11T01:51:24;102579.13;;;4.48;100.00
8653;BME280;4364;52.426;9.424;2023-02-11T01:53:54;102555.63;;;4.42;100.00
8653;BME280;4364;52.426;9.424;2023-02-11T01:56:44;102560.91;;;4.50;100.00
8653;BME280;4364;52.426;9.424;2023-02-11T01:59:34;102554.09;;;4.54;100.00
8653;BME280;4364;52.426;9.424;2023-02-11T02:02:07;102555.16;;;4.53;100.00
8653;BME280;4364;52.426;9.424;2023-02-11T02:04:45;102544.94;;;4.49;100.00
8653;BME280;4364;52.426;9.424;2023-02-11T02:07:21;102545.19;;;4.54;100.00
8653;BME280;4364;52.426;9.424;2023-02-11T02:09:58;102540.56;;;4.48;100.00
8653;BME280;4364;52.426;9.424;2023-02-11T02:12:27;102537.31;;;4.52;100.00
8653;BME280;4364;52.426;9.424;2023-02-11T02:15:32;102536.28;;;4.53;100.00
8653;BME280;4364;52.426;9.424;2023-02-11T02:23:21;102536.34;;;4.60;100.00
8653;BME280;4364;52.426;9.424;2023-02-11T02:26:13;102546.69;;;4.56;100.00
8653;BME280;4364;52.426;9.424;2023-02-11T02:34:14;102542.63;;;4.67;100.00
8653;BME280;4364;52.426;9.424;2023-02-11T02:36:50;102538.22;;;4.59;100.00
8653;BME280;4364;52.426;9.424;2023-02-11T02:39:23;102539.75;;;4.69;100.00
8653;BME280;4364;52.426;9.424;2023-02-11T02:41:52;102520.88;;;4.69;100.00
8653;BME280;4364;52.426;9.424;2023-02-11T02:44:20;102510.75;;;4.71;100.00
8653;BME280;4364;52.426;9.424;2023-02-11T02:46:46;102499.31;;;4.69;100.00
8653;BME280;4364;52.426;9.424;2023-02-11T02:49:14;102513.25;;;4.72;100.00
8653;BME280;4364;52.426;9.424;2023-02-11T02:51:49;102525.31;;;4.76;100.00
8653;BME280;4364;52.426;9.424;2023-02-11T02:57:35;102528.84;;;4.77;100.00
8653;BME280;4364;52.426;9.424;2023-02-11T03:08:35;102508.22;;;4.91;100.00
8653;BME280;4364;52.426;9.424;2023-02-11T03:11:04;102506.50;;;4.83;100.00
8653;BME280;4364;52.426;9.424;2023-02-11T03:13:33;102501.38;;;4.88;100.00
8653;BME280;4364;52.426;9.424;2023-02-11T03:16:06;102496.16;;;4.87;100.00
8653;BME280;4364;52.426;9.424;2023-02-11T03:18:35;102499.50;;;4.89;100.00
8653;BME280;4364;52.426;9.424;2023-02-11T03:21:04;102496.16;;;4.87;100.00
8653;BME280;4364;52.426;9.424;2023-02-11T03:23:37;102491.84;;;4.92;100.00
8653;BME280;4364;52.426;9.424;2023-02-11T03:26:14;102492.47;;;4.94;100.00
8653;BME280;4364;52.426;9.424;2023-02-11T03:28:54;102488.47;;;4.83;100.00
8653;BME280;4364;52.426;9.424;2023-02-11T03:31:29;102488.91;;;4.87;100.00
8653;BME280;4364;52.426;9.424;2023-02-11T03:34:20;102475.47;;;4.94;100.00
8653;BME280;4364;52.426;9.424;2023-02-11T03:36:53;102475.22;;;4.89;100.00
8653;BME280;4364;52.426;9.424;2023-02-11T03:39:26;102478.19;;;4.94;100.00
8653;BME280;4364;52.426;9.424;2023-02-11T03:41:55;102494.75;;;4.91;100.00
8653;BME280;4364;52.426;9.424;2023-02-11T03:44:25;102490.44;;;4.96;100.00
8653;BME280;4364;52.426;9.424;2023-02-11T03:46:56;102487.03;;;4.88;100.00
8653;BME280;4364;52.426;9.424;2023-02-11T03:49:25;102487.50;;;4.91;100.00
8653;BME280;4364;52.426;9.424;2023-02-11T03:51:53;102498.03;;;4.86;100.00
8653;BME280;4364;52.426;9.424;2023-02-11T03:54:29;102488.22;;;4.78;100.00
8653;BME280;4364;52.426;9.424;2023-02-11T03:56:58;102490.16;;;4.85;100.00
8653;BME280;4364;52.426;9.424;2023-02-11T03:59:27;102488.09;;;4.87;100.00
8653;BME280;4364;52.426;9.424;2023-02-11T04:01:53;102486.59;;;4.84;100.00
8653;BME280;4364;52.426;9.424;2023-02-11T04:04:20;102494.69;;;4.84;100.00
8653;BME280;4364;52.426;9.424;2023-02-11T04:06:47;102491.34;;;4.82;100.00
8653;BME280;4364;52.426;9.424;2023-02-11T04:09:13;102491.78;;;4.86;100.00
8653;BME280;4364;52.426;9.424;2023-02-11T04:11:40;102496.56;;;4.83;100.00
8653;BME280;4364;52.426;9.424;2023-02-11T04:14:07;102500.69;;;4.79;100.00
8653;BME280;4364;52.426;9.424;2023-02-11T04:16:33;102499.56;;;4.74;100.00
8653;BME280;4364;52.426;9.424;2023-02-11T04:19:00;102506.06;;;4.79;100.00
8653;BME280;4364;52.426;9.424;2023-02-11T04:21:27;102499.63;;;4.80;100.00
8653;BME280;4364;52.426;9.424;2023-02-11T04:23:54;102487.41;;;4.78;100.00
8653;BME280;4364;52.426;9.424;2023-02-11T04:26:20;102490.34;;;4.83;100.00
8653;BME280;4364;52.426;9.424;2023-02-11T04:28:47;102488.47;;;4.83;100.00
8653;BME280;4364;52.426;9.424;2023-02-11T04:31:13;102482.25;;;4.83;100.00
8653;BME280;4364;52.426;9.424;2023-02-11T04:33:40;102495.41;;;4.93;100.00
8653;BME280;4364;52.426;9.424;2023-02-11T04:36:07;102482.44;;;4.81;100.00
8653;BME280;4364;52.426;9.424;2023-02-11T04:38:33;102493.38;;;4.73;100.00
8653;BME280;4364;52.426;9.424;2023-02-11T04:41:00;102495.34;;;4.86;100.00
8653;BME280;4364;52.426;9.424;2023-02-11T04:43:26;102496.13;;;4.80;100.00
8653;BME280;4364;52.426;9.424;2023-02-11T04:45:56;102484.56;;;4.86;100.00
8653;BME280;4364;52.426;9.424;2023-02-11T04:48:24;102496.59;;;4.90;100.00
8653;BME280;4364;52.426;9.424;2023-02-11T04:50:51;102488.91;;;4.87;100.00
8653;BME280;4364;52.426;9.424;2023-02-11T04:53:17;102498.69;;;4.88;100.00
8653;BME280;4364;52.426;9.424;2023-02-11T04:55:43;102497.00;;;4.87;100.00
8653;BME280;4364;52.426;9.424;2023-02-11T04:58:10;102496.81;;;4.89;100.00
8653;BME280;4364;52.426;9.424;2023-02-11T05:00:37;102488.72;;;4.89;100.00
8653;BME280;4364;52.426;9.424;2023-02-11T05:03:03;102484.44;;;5.01;100.00
8653;BME280;4364;52.426;9.424;2023-02-11T05:05:30;102485.44;;;4.93;100.00
8653;BME280;4364;52.426;9.424;2023-02-11T05:07:56;102475.72;;;4.99;100.00
8653;BME280;4364;52.426;9.424;2023-02-11T05:10:22;102469.84;;;4.89;100.00
8653;BME280;4364;52.426;9.424;2023-02-11T05:12:49;102471.91;;;4.87;100.00
8653;BME280;4364;52.426;9.424;2023-02-11T05:15:15;102483.19;;;4.97;100.00
8653;BME280;4364;52.426;9.424;2023-02-11T05:17:42;102484.38;;;4.94;100.00
8653;BME280;4364;52.426;9.424;2023-02-11T05:20:09;102485.44;;;4.93;100.00
8653;BME280;4364;52.426;9.424;2023-02-11T05:22:36;102496.47;;;4.98;100.00
8653;BME280;4364;52.426;9.424;2023-02-11T05:25:02;102499.16;;;4.98;100.00
8653;BME280;4364;52.426;9.424;2023-02-11T05:27:29;102500.84;;;4.99;100.00
8653;BME280;4364;52.426;9.424;2023-02-11T05:29:55;102496.84;;;4.95;100.00
8653;BME280;4364;52.426;9.424;2023-02-11T05:32:21;102498.53;;;4.96;100.00
8653;BME280;4364;52.426;9.424;2023-02-11T05:34:48;102492.34;;;5.03;100.00
8653;BME280;4364;52.426;9.424;2023-02-11T05:37:14;102489.19;;;4.99;100.00
8653;BME280;4364;52.426;9.424;2023-02-11T05:39:41;102490.69;;;5.01;100.00
8653;BME280;4364;52.426;9.424;2023-02-11T05:42:08;102489.31;;;5.12;100.00
8653;BME280;4364;52.426;9.424;2023-02-11T05:44:34;102489.88;;;5.08;100.00
8653;BME280;4364;52.426;9.424;2023-02-11T05:47:01;102484.25;;;5.03;100.00
8653;BME280;4364;52.426;9.424;2023-02-11T05:49:28;102490.94;;;5.07;100.00
8653;BME280;4364;52.426;9.424;2023-02-11T05:51:54;102480.69;;;4.95;100.00
8653;BME280;4364;52.426;9.424;2023-02-11T05:54:21;102478.91;;;5.09;100.00
8653;BME280;4364;52.426;9.424;2023-02-11T05:56:47;102465.75;;;4.93;100.00
8653;BME280;4364;52.426;9.424;2023-02-11T05:59:14;102460.03;;;5.09;100.00
8653;BME280;4364;52.426;9.424;2023-02-11T06:01:41;102471.72;;;5.16;100.00
8653;BME280;4364;52.426;9.424;2023-02-11T06:04:08;102467.53;;;5.14;100.00
8653;BME280;4364;52.426;9.424;2023-02-11T06:06:34;102471.25;;;5.06;100.00
8653;BME280;4364;52.426;9.424;2023-02-11T06:09:01;102474.81;;;5.13;100.00
8653;BME280;4364;52.426;9.424;2023-02-11T06:11:27;102464.50;;;4.95;100.00
8653;BME280;4364;52.426;9.424;2023-02-11T06:13:54;102478.81;;;4.96;100.00
8653;BME280;4364;52.426;9.424;2023-02-11T06:16:21;102479.06;;;5.01;100.00
8653;BME280;4364;52.426;9.424;2023-02-11T06:18:47;102481.84;;;5.14;100.00
8653;BME280;4364;52.426;9.424;2023-02-11T06:21:14;102489.44;;;5.04;100.00
8653;BME280;4364;52.426;9.424;2023-02-11T06:23:40;102496.31;;;5.07;100.00
8653;BME280;4364;52.426;9.424;2023-02-11T06:26:18;102503.69;;;5.19;100.00
8653;BME280;4364;52.426;9.424;2023-02-11T06:28:45;102492.63;;;5.14;100.00
8653;BME280;4364;52.426;9.424;2023-02-11T06:31:12;102489.94;;;5.14;100.00
8653;BME280;4364;52.426;9.424;2023-02-11T06:33:40;102498.03;;;5.14;100.00
8653;BME280;4364;52.426;9.424;2023-02-11T06:36:24;102508.63;;;5.16;100.00
8653;BME280;4364;52.426;9.424;2023-02-11T06:38:51;102498.63;;;5.10;100.00
8653;BME280;4364;52.426;9.424;2023-02-11T06:41:18;102499.84;;;5.07;100.00
8653;BME280;4364;52.426;9.424;2023-02-11T06:43:48;102504.31;;;5.22;100.00
8653;BME280;4364;52.426;9.424;2023-02-11T06:46:15;102505.34;;;5.20;100.00
8653;BME280;4364;52.426;9.424;2023-02-11T06:48:41;102504.09;;;5.16;100.00
8653;BME280;4364;52.426;9.424;2023-02-11T06:51:11;102491.75;;;5.07;100.00
8653;BME280;4364;52.426;9.424;2023-02-11T06:53:43;102501.97;;;5.12;100.00
8653;BME280;4364;52.426;9.424;2023-02-11T06:56:14;102500.13;;;5.19;100.00
8653;BME280;4364;52.426;9.424;2023-02-11T06:58:41;102505.78;;;5.24;100.00
8653;BME280;4364;52.426;9.424;2023-02-11T07:01:10;102501.56;;;5.15;100.00
8653;BME280;4364;52.426;9.424;2023-02-11T07:03:39;102503.28;;;5.23;100.00
8653;BME280;4364;52.426;9.424;2023-02-11T07:06:12;102503.41;;;5.14;100.00
8653;BME280;4364;52.426;9.424;2023-02-11T07:08:39;102524.22;;;5.20;100.00
8653;BME280;4364;52.426;9.424;2023-02-11T07:11:17;102507.22;;;5.20;100.00
8653;BME280;4364;52.426;9.424;2023-02-11T07:13:44;102514.00;;;5.16;100.00
8653;BME280;4364;52.426;9.424;2023-02-11T07:16:13;102515.75;;;5.24;100.00
8653;BME280;4364;52.426;9.424;2023-02-11T07:18:40;102515.53;;;5.25;100.00
8653;BME280;4364;52.426;9.424;2023-02-11T07:21:09;102517.63;;;5.23;100.00
8653;BME280;4364;52.426;9.424;2023-02-11T07:23:37;102514.97;;;5.30;100.00
8653;BME280;4364;52.426;9.424;2023-02-11T07:26:06;102517.81;;;5.22;100.00
8653;BME280;4364;52.426;9.424;2023-02-11T07:28:34;102511.13;;;5.17;100.00
8653;BME280;4364;52.426;9.424;2023-02-11T07:31:21;102514.97;;;5.30;100.00
8653;BME280;4364;52.426;9.424;2023-02-11T07:33:48;102518.47;;;5.30;100.00
8653;BME280;4364;52.426;9.424;2023-02-11T07:36:15;102520.22;;;5.38;100.00
8653;BME280;4364;52.426;9.424;2023-02-11T07:38:42;102517.84;;;5.28;100.00
8653;BME280;4364;52.426;9.424;2023-02-11T07:41:12;102526.34;;;5.25;100.00
8653;BME280;4364;52.426;9.424;2023-02-11T07:43:39;102522.81;;;5.25;100.00
8653;BME280;4364;52.426;9.424;2023-02-11T07:46:11;102519.25;;;5.24;100.00
8653;BME280;4364;52.426;9.424;2023-02-11T07:48:38;102527.16;;;5.26;100.00
8653;BME280;4364;52.426;9.424;2023-02-11T07:51:08;102543.19;;;5.34;100.00
8653;BME280;4364;52.426;9.424;2023-02-11T07:53:35;102533.69;;;5.38;100.00
8653;BME280;4364;52.426;9.424;2023-02-11T07:56:03;102540.06;;;5.30;100.00
8653;BME280;4364;52.426;9.424;2023-02-11T07:58:30;102531.59;;;5.33;100.00
8653;BME280;4364;52.426;9.424;2023-02-11T08:01:01;102518.69;;;5.29;100.00
8653;BME280;4364;52.426;9.424;2023-02-11T08:03:28;102526.44;;;5.38;100.00
8653;BME280;4364;52.426;9.424;2023-02-11T08:05:55;102529.13;;;5.38;100.00
8653;BME280;4364;52.426;9.424;2023-02-11T08:08:21;102524.94;;;5.36;100.00
8653;BME280;4364;52.426;9.424;2023-02-11T08:10:48;102531.19;;;5.36;100.00
8653;BME280;4364;52.426;9.424;2023-02-11T08:13:15;102519.16;;;5.39;100.00
8653;BME280;4364;52.426;9.424;2023-02-11T08:15:42;102524.56;;;5.39;100.00
8653;BME280;4364;52.426;9.424;2023-02-11T08:18:09;102524.13;;;5.35;100.00
8653;BME280;4364;52.426;9.424;2023-02-11T08:20:35;102527.84;;;5.34;100.00
8653;BME280;4364;52.426;9.424;2023-02-11T08:23:05;102539.34;;;5.43;100.00
8653;BME280;4364;52.426;9.424;2023-02-11T08:25:32;102548.88;;;5.46;100.00
8653;BME280;4364;52.426;9.424;2023-02-11T08:27:58;102539.09;;;5.38;100.00
8653;BME280;4364;52.426;9.424;2023-02-11T08:30:25;102541.56;;;5.39;100.00
8653;BME280;4364;52.426;9.424;2023-02-11T08:32:52;102543.25;;;5.41;100.00
8653;BME280;4364;52.426;9.424;2023-02-11T08:35:19;102537.47;;;5.44;100.00
8653;BME280;4364;52.426;9.424;2023-02-11T08:37:45;102543.28;;;5.47;100.00
8653;BME280;4364;52.426;9.424;2023-02-11T08:40:12;102555.38;;;5.51;100.00
8653;BME280;4364;52.426;9.424;2023-02-11T08:42:38;102550.00;;;5.58;100.00
8653;BME280;4364;52.426;9.424;2023-02-11T08:45:05;102547.72;;;5.55;100.00
8653;BME280;4364;52.426;9.424;2023-02-11T08:47:32;102541.22;;;5.49;100.00
8653;BME280;4364;52.426;9.424;2023-02-11T08:49:58;102543.34;;;5.54;100.00
8653;BME280;4364;52.426;9.424;2023-02-11T08:52:26;102542.94;;;5.57;100.00
8653;BME280;4364;52.426;9.424;2023-02-11T08:54:52;102550.41;;;5.55;100.00
8653;BME280;4364;52.426;9.424;2023-02-11T08:57:19;102552.72;;;5.58;100.00
8653;BME280;4364;52.426;9.424;2023-02-11T08:59:45;102560.00;;;5.64;100.00
8653;BME280;4364;52.426;9.424;2023-02-11T09:02:12;102562.34;;;5.74;100.00
8653;BME280;4364;52.426;9.424;2023-02-11T09:04:39;102567.28;;;5.64;100.00
8653;BME280;4364;52.426;9.424;2023-02-11T09:07:06;102575.81;;;5.67;100.00
8653;BME280;4364;52.426;9.424;2023-02-11T09:09:32;102572.91;;;5.69;100.00
8653;BME280;4364;52.426;9.424;2023-02-11T09:11:59;102578.06;;;5.64;100.00
8653;BME280;4364;52.426;9.424;2023-02-11T09:14:28;102592.63;;;5.69;100.00
8653;BME280;4364;52.426;9.424;2023-02-11T09:16:54;102591.41;;;5.72;100.00
8653;BME280;4364;52.426;9.424;2023-02-11T09:19:21;102588.13;;;5.77;100.00
8653;BME280;4364;52.426;9.424;2023-02-11T09:21:48;102588.66;;;5.65;100.00
8653;BME280;4364;52.426;9.424;2023-02-11T09:24:15;102595.13;;;5.71;100.00
8653;BME280;4364;52.426;9.424;2023-02-11T09:26:42;102588.28;;;5.68;100.00
8653;BME280;4364;52.426;9.424;2023-02-11T09:29:11;102579.16;;;5.76;100.00
8653;BME280;4364;52.426;9.424;2023-02-11T09:31:37;102581.88;;;5.76;100.00
8653;BME280;4364;52.426;9.424;2023-02-11T09:34:05;102595.13;;;5.71;100.00
8653;BME280;4364;52.426;9.424;2023-02-11T09:36:35;102593.31;;;5.78;100.00
8653;BME280;4364;52.426;9.424;2023-02-11T09:39:04;102595.16;;;5.78;100.00
8653;BME280;4364;52.426;9.424;2023-02-11T09:41:45;102597.28;;;5.82;100.00
8653;BME280;4364;52.426;9.424;2023-02-11T09:44:20;102596.47;;;5.82;100.00
8653;BME280;4364;52.426;9.424;2023-02-11T09:46:57;102606.81;;;5.78;100.00
8653;BME280;4364;52.426;9.424;2023-02-11T09:49:33;102605.97;;;5.78;100.00
8653;BME280;4364;52.426;9.424;2023-02-11T09:52:10;102613.63;;;5.74;100.00
8653;BME280;4364;52.426;9.424;2023-02-11T09:55:04;102613.63;;;5.74;100.00
8653;BME280;4364;52.426;9.424;2023-02-11T09:57:34;102607.41;;;5.73;100.00
8653;BME280;4364;52.426;9.424;2023-02-11T10:00:11;102623.84;;;5.79;100.00
8653;BME280;4364;52.426;9.424;2023-02-11T10:03:25;102619.50;;;5.84;100.00
8653;BME280;4364;52.426;9.424;2023-02-11T10:06:11;102616.81;;;5.84;100.00
8653;BME280;4364;52.426;9.424;2023-02-11T10:16:58;102639.09;;;5.93;100.00
8653;BME280;4364;52.426;9.424;2023-02-11T10:19:37;102636.81;;;5.90;100.00
8653;BME280;4364;52.426;9.424;2023-02-11T10:22:18;102632.81;;;5.86;100.00
8653;BME280;4364;52.426;9.424;2023-02-11T10:24:51;102641.97;;;5.85;100.00
8653;BME280;4364;52.426;9.424;2023-02-11T10:27:21;102630.34;;;5.91;100.00
8653;BME280;4364;52.426;9.424;2023-02-11T10:29:56;102645.53;;;5.92;100.00
8653;BME280;4364;52.426;9.424;2023-02-11T10:32:59;102646.13;;;5.87;100.00
8653;BME280;4364;52.426;9.424;2023-02-11T10:35:28;102659.31;;;5.97;100.00
8653;BME280;4364;52.426;9.424;2023-02-11T10:37:55;102658.66;;;5.95;100.00
8653;BME280;4364;52.426;9.424;2023-02-11T10:40:24;102660.50;;;5.94;100.00
8653;BME280;4364;52.426;9.424;2023-02-11T10:42:57;102653.25;;;5.95;100.00
8653;BME280;4364;52.426;9.424;2023-02-11T10:45:37;102650.84;;;6.07;100.00
8653;BME280;4364;52.426;9.424;2023-02-11T10:48:05;102643.53;;;6.01;100.00
8653;BME280;4364;52.426;9.424;2023-02-11T10:51:16;102654.13;;;6.02;100.00
8653;BME280;4364;52.426;9.424;2023-02-11T10:53:44;102654.13;;;6.02;100.00
8653;BME280;4364;52.426;9.424;2023-02-11T10:56:22;102662.03;;;6.04;100.00
8653;BME280;4364;52.426;9.424;2023-02-11T10:59:00;102656.44;;;6.05;100.00
8653;BME280;4364;52.426;9.424;2023-02-11T11:01:40;102655.19;;;6.08;100.00
8653;BME280;4364;52.426;9.424;2023-02-11T11:07:15;102648.59;;;6.10;100.00
8653;BME280;4364;52.426;9.424;2023-02-11T11:09:49;102653.34;;;6.08;100.00
8653;BME280;4364;52.426;9.424;2023-02-11T11:12:32;102657.28;;;6.06;100.00
8653;BME280;4364;52.426;9.424;2023-02-11T11:17:36;102659.00;;;6.14;100.00
8653;BME280;4364;52.426;9.424;2023-02-11T11:20:17;102661.31;;;6.17;100.00
8653;BME280;4364;52.426;9.424;2023-02-11T11:22:44;102659.63;;;6.16;100.00
8653;BME280;4364;52.426;9.424;2023-02-11T11:25:40;102666.28;;;6.20;100.00
8653;BME280;4364;52.426;9.424;2023-02-11T11:28:19;102670.22;;;6.17;100.00
8653;BME280;4364;52.426;9.424;2023-02-11T11:30:47;102677.13;;;6.26;100.00
8653;BME280;4364;52.426;9.424;2023-02-11T11:33:34;102676.94;;;6.28;100.00
8653;BME280;4364;52.426;9.424;2023-02-11T11:36:07;102683.56;;;6.25;100.00
8653;BME280;4364;52.426;9.424;2023-02-11T11:38:36;102682.31;;;6.28;100.00
8653;BME280;4364;52.426;9.424;2023-02-11T11:41:23;102682.56;;;6.33;100.00
8653;BME280;4364;52.426;9.424;2023-02-11T11:46:47;102669.50;;;6.37;100.00
8653;BME280;4364;52.426;9.424;2023-02-11T11:49:24;102658.28;;;6.40;100.00
8653;BME280;4364;52.426;9.424;2023-02-11T11:52:05;102663.09;;;6.44;100.00
8653;BME280;4364;52.426;9.424;2023-02-11T11:54:35;102672.50;;;6.55;100.00
8653;BME280;4364;52.426;9.424;2023-02-11T11:57:11;102672.69;;;6.54;100.00
8653;BME280;4364;52.426;9.424;2023-02-11T11:59:40;102684.56;;;6.59;100.00
8653;BME280;4364;52.426;9.424;2023-02-11T12:05:10;102686.03;;;6.62;100.00
8653;BME280;4364;52.426;9.424;2023-02-11T12:07:55;102673.13;;;6.57;100.00
8653;BME280;4364;52.426;9.424;2023-02-11T12:10:51;102668.78;;;6.63;100.00
8653;BME280;4364;52.426;9.424;2023-02-11T12:16:18;102661.94;;;6.67;100.00
8653;BME280;4364;52.426;9.424;2023-02-11T12:22:20;102665.66;;;6.66;100.00
8653;BME280;4364;52.426;9.424;2023-02-11T12:38:55;102678.19;;;6.74;100.00
8653;BME280;4364;52.426;9.424;2023-02-11T12:41:36;102671.31;;;6.78;100.00
8653;BME280;4364;52.426;9.424;2023-02-11T12:47:33;102670.09;;;6.80;100.00
8653;BME280;4364;52.426;9.424;2023-02-11T12:50:21;102665.72;;;6.86;100.00
8653;BME280;4364;52.426;9.424;2023-02-11T12:55:43;102654.06;;;6.79;100.00
8653;BME280;4364;52.426;9.424;2023-02-11T12:58:18;102657.41;;;6.81;100.00
8653;BME280;4364;52.426;9.424;2023-02-11T13:00:54;102658.66;;;6.85;100.00
8653;BME280;4364;52.426;9.424;2023-02-11T13:03:36;102656.38;;;6.82;100.00
8653;BME280;4364;52.426;9.424;2023-02-11T13:06:07;102660.72;;;6.83;100.00
8653;BME280;4364;52.426;9.424;2023-02-11T13:08:38;102658.22;;;6.81;100.00
8653;BME280;4364;52.426;9.424;2023-02-11T13:11:10;102656.19;;;6.90;100.00
8653;BME280;4364;52.426;9.424;2023-02-11T13:14:11;102655.34;;;6.96;100.00
8653;BME280;4364;52.426;9.424;2023-02-11T13:16:48;102653.28;;;6.92;100.00
8653;BME280;4364;52.426;9.424;2023-02-11T13:19:37;102655.13;;;6.91;100.00
8653;BME280;4364;52.426;9.424;2023-02-11T13:22:12;102657.00;;;6.91;100.00
8653;BME280;4364;52.426;9.424;2023-02-11T13:24:58;102659.91;;;6.89;100.00
8653;BME280;4364;52.426;9.424;2023-02-11T13:27:40;102659.53;;;7.05;100.00
8653;BME280;4364;52.426;9.424;2023-02-11T13:30:32;102666.38;;;7.01;100.00
8653;BME280;4364;52.426;9.424;2023-02-11T13:33:02;102662.66;;;7.02;100.00
8653;BME280;4364;52.426;9.424;2023-02-11T13:35:33;102667.66;;;7.05;100.00
8653;BME280;4364;52.426;9.424;2023-02-11T13:38:02;102665.38;;;7.09;100.00
8653;BME280;4364;52.426;9.424;2023-02-11T13:40:37;102673.06;;;7.05;100.00
8653;BME280;4364;52.426;9.424;2023-02-11T13:43:06;102669.72;;;6.97;100.00
8653;BME280;4364;52.426;9.424;2023-02-11T13:45:47;102677.63;;;6.98;100.00
8653;BME280;4364;52.426;9.424;2023-02-11T13:50:55;102673.03;;;6.92;100.00
8653;BME280;4364;52.426;9.424;2023-02-11T13:53:22;102671.78;;;7.01;100.00
8653;BME280;4364;52.426;9.424;2023-02-11T13:55:51;102671.56;;;6.96;100.00
8653;BME280;4364;52.426;9.424;2023-02-11T14:00:52;102683.66;;;6.94;100.00
8653;BME280;4364;52.426;9.424;2023-02-11T14:11:50;102671.16;;;6.93;100.00
8653;BME280;4364;52.426;9.424;2023-02-11T14:19:40;102680.75;;;6.95;100.00
8653;BME280;4364;52.426;9.424;2023-02-11T14:27:07;102696.34;;;7.00;100.00
8653;BME280;4364;52.426;9.424;2023-02-11T14:32:33;102700.47;;;6.89;100.00
8653;BME280;4364;52.426;9.424;2023-02-11T14:35:14;102701.13;;;6.98;100.00
8653;BME280;4364;52.426;9.424;2023-02-11T14:43:51;102696.97;;;6.95;100.00
8653;BME280;4364;52.426;9.424;2023-02-11T14:46:17;102703.44;;;7.01;100.00
8653;BME280;4364;52.426;9.424;2023-02-11T14:48:51;102691.56;;;6.95;100.00
8653;BME280;4364;52.426;9.424;2023-02-11T14:51:21;102696.97;;;6.95;100.00
8653;BME280;4364;52.426;9.424;2023-02-11T14:53:50;102703.00;;;6.97;100.00
8653;BME280;4364;52.426;9.424;2023-02-11T14:56:21;102701.75;;;7.00;100.00
8653;BME280;4364;52.426;9.424;2023-02-11T14:58:49;102708.00;;;6.94;100.00
8653;BME280;4364;52.426;9.424;2023-02-11T15:03:51;102710.13;;;7.05;100.00
8653;BME280;4364;52.426;9.424;2023-02-11T15:06:30;102704.47;;;7.00;100.00
8653;BME280;4364;52.426;9.424;2023-02-11T15:09:36;102707.16;;;7.00;100.00
8653;BME280;4364;52.426;9.424;2023-02-11T15:12:08;102716.78;;;7.16;100.00
8653;BME280;4364;52.426;9.424;2023-02-11T15:14:45;102715.75;;;7.10;100.00
8653;BME280;4364;52.426;9.424;2023-02-11T15:17:20;102708.47;;;7.11;100.00